地図

経路データ

SID SEASON NUMBER BASIN SUBBASIN NAME ISO_TIME NATURE LAT LON WMO_WIND WMO_PRES WMO_AGENCY TRACK_TYPE DIST2LAND LANDFALL IFLAG USA_AGENCY USA_ATCF_ID USA_LAT USA_LON USA_RECORD USA_STATUS USA_WIND USA_PRES USA_SSHS USA_R34_NE USA_R34_SE USA_R34_SW USA_R34_NW USA_R50_NE USA_R50_SE USA_R50_SW USA_R50_NW USA_R64_NE USA_R64_SE USA_R64_SW USA_R64_NW USA_POCI USA_ROCI USA_RMW USA_EYE TOKYO_LAT TOKYO_LON TOKYO_GRADE TOKYO_WIND TOKYO_PRES TOKYO_R50_DIR TOKYO_R50_LONG TOKYO_R50_SHORT TOKYO_R30_DIR TOKYO_R30_LONG TOKYO_R30_SHORT TOKYO_LAND CMA_LAT CMA_LON CMA_CAT CMA_WIND CMA_PRES HKO_LAT HKO_LON HKO_CAT HKO_WIND HKO_PRES NEWDELHI_LAT NEWDELHI_LON NEWDELHI_GRADE NEWDELHI_WIND NEWDELHI_PRES NEWDELHI_CI NEWDELHI_DP NEWDELHI_POCI REUNION_LAT REUNION_LON REUNION_TYPE REUNION_WIND REUNION_PRES REUNION_TNUM REUNION_CI REUNION_RMW REUNION_R34_NE REUNION_R34_SE REUNION_R34_SW REUNION_R34_NW REUNION_R50_NE REUNION_R50_SE REUNION_R50_SW REUNION_R50_NW REUNION_R64_NE REUNION_R64_SE REUNION_R64_SW REUNION_R64_NW BOM_LAT BOM_LON BOM_TYPE BOM_WIND BOM_PRES BOM_TNUM BOM_CI BOM_RMW BOM_R34_NE BOM_R34_SE BOM_R34_SW BOM_R34_NW BOM_R50_NE BOM_R50_SE BOM_R50_SW BOM_R50_NW BOM_R64_NE BOM_R64_SE BOM_R64_SW BOM_R64_NW BOM_ROCI BOM_POCI BOM_EYE BOM_POS_METHOD BOM_PRES_METHOD NADI_LAT NADI_LON NADI_CAT NADI_WIND NADI_PRES WELLINGTON_LAT WELLINGTON_LON WELLINGTON_WIND WELLINGTON_PRES DS824_LAT DS824_LON DS824_STAGE DS824_WIND DS824_PRES TD9636_LAT TD9636_LON TD9636_STAGE TD9636_WIND TD9636_PRES TD9635_LAT TD9635_LON TD9635_WIND TD9635_PRES TD9635_ROCI NEUMANN_LAT NEUMANN_LON NEUMANN_CLASS NEUMANN_WIND NEUMANN_PRES MLC_LAT MLC_LON MLC_CLASS MLC_WIND MLC_PRES USA_GUST BOM_GUST BOM_GUST_PER REUNION_GUST REUNION_GUST_PER USA_SEAHGT USA_SEARAD_NE USA_SEARAD_SE USA_SEARAD_SW USA_SEARAD_NW STORM_SPEED STORM_DIR
1952131S08072 1952 27 SI MM NOT_NAMED 1952-05-10 06:00:00 TS -7.60000 71.8000 main 1792 1792 O________OO___ jtwc_sh SH241952 -7.60000 71.8000 -1 -7.60000 71.8000 TC 25 -7.60000 71.8000 7 9 214
1952131S08072 1952 27 SI MM NOT_NAMED 1952-05-10 09:00:00 TS -7.95828 71.5532 main 1842 1842 P________PP___ SH241952 -7.98504 71.5476 -1 -7.98504 71.5476 TC 25 -7.90475 71.5644 7 8 216
1952131S08072 1952 27 SI MM NOT_NAMED 1952-05-10 12:00:00 TS -8.26252 71.3076 main 1888 1888 O________OP___ jtwc_sh SH241952 -8.30000 71.3000 -1 -8.30000 71.3000 TC 25 -8.18756 71.3229 7 7 223
1952131S08072 1952 27 SI MM NOT_NAMED 1952-05-10 15:00:00 TS -8.47217 71.0616 main 1918 1908 P________PP___ SH241952 -8.49497 71.0575 -1 -8.49497 71.0575 TC 25 -8.42659 71.0699 7 6 236
1952131S08072 1952 27 SI MM NOT_NAMED 1952-05-10 18:00:00 TS -8.60000 70.8000 main 1908 1876 O________OO___ jtwc_sh SH241952 -8.60000 70.8000 -1 -8.60000 70.8000 TC 25 -8.60000 70.8000 7 6 249
1952131S08072 1952 27 SI MM NOT_NAMED 1952-05-10 21:00:00 TS -8.67958 70.5084 main 1876 1853 P________PP___ SH241952 -8.67249 70.5075 -1 -8.67249 70.5075 TC 25 -8.69375 70.5101 7 6 260
1952131S08072 1952 27 SI MM NOT_NAMED 1952-05-11 00:00:00 TS -8.70833 70.2024 main 1853 1830 O________OP___ jtwc_sh SH241952 -8.70000 70.2000 -1 -8.70000 70.2000 TC 25 -8.72500 70.2073 7 6 267
1952131S08072 1952 27 SI MM NOT_NAMED 1952-05-11 03:00:00 TS -8.71123 69.9002 main 1830 1807 P________PP___ SH241952 -8.70748 69.9000 -1 -8.70748 69.9000 TC 25 -8.71874 69.9008 7 6 271
1952131S08072 1952 27 SI MM NOT_NAMED 1952-05-11 06:00:00 TS -8.70000 69.6000 main 1807 1784 O________OO___ jtwc_sh SH241952 -8.70000 69.6000 -1 -8.70000 69.6000 TC 25 -8.70000 69.6000 7 6 271
1952131S08072 1952 27 SI MM NOT_NAMED 1952-05-11 09:00:00 TS -8.70101 69.2996 main 1784 1762 P________PP___ SH241952 -8.69999 69.2925 -1 -8.69999 69.2925 TC 25 -8.70306 69.3137 7 6 270
1952131S08072 1952 27 SI MM NOT_NAMED 1952-05-11 12:00:00 TS -8.69997 69.0117 main 1762 1747 O________OP___ jtwc_sh SH241952 -8.70000 69.0000 -1 -8.70000 69.0000 TC 25 -8.69992 69.0349 7 5 270
1952131S08072 1952 27 SI MM NOT_NAMED 1952-05-11 15:00:00 TS -8.69892 68.7496 main 1740 1725 P________PP___ SH241952 -8.69997 68.7425 -1 -8.69997 68.7425 TC 25 -8.69682 68.7637 7 5 270
1952131S08072 1952 27 SI MM NOT_NAMED 1952-05-11 18:00:00 TS -8.70000 68.5000 main 1725 1711 O________OO___ jtwc_sh SH241952 -8.70000 68.5000 -1 -8.70000 68.5000 TC 25 -8.70000 68.5000 7 5 270
1952131S08072 1952 27 SI MM NOT_NAMED 1952-05-11 21:00:00 TS -8.70225 68.2490 main 1703 1689 P________PP___ SH241952 -8.69248 68.2500 -1 -8.69248 68.2500 TC 25 -8.72178 68.2469 7 5 268
1952131S08072 1952 27 SI MM NOT_NAMED 1952-05-12 00:00:00 TS -8.71662 68.0000 main 1689 1667 O________OP___ jtwc_sh SH241952 -8.70000 68.0000 -1 -8.70000 68.0000 TC 25 -8.74987 68.0000 7 5 263
1952131S08072 1952 27 SI MM NOT_NAMED 1952-05-12 03:00:00 TS -8.75933 67.7511 main 1667 1646 P________PP___ SH241952 -8.74998 67.7500 -1 -8.74998 67.7500 TC 25 -8.77803 67.7532 7 5 260
1952131S08072 1952 27 SI MM NOT_NAMED 1952-05-12 06:00:00 TS -8.80000 67.5000 main 1646 1632 O________OO___ jtwc_sh SH241952 -8.80000 67.5000 -1 -8.80000 67.5000 TC 25 -8.80000 67.5000 7 5 263
1952131S08072 1952 27 SI MM NOT_NAMED 1952-05-12 09:00:00 TS -8.82090 67.2491 main 1625 1612 P________PP___ SH241952 -8.80747 67.2575 -1 -8.80747 67.2575 TC 25 -8.84777 67.2324 7 5 267
1952131S08072 1952 27 SI MM NOT_NAMED 1952-05-12 12:00:00 TS -8.82748 66.9859 main 1612 1583 O________OP___ jtwc_sh SH241952 -8.80000 67.0000 -1 -8.80000 67.0000 TC 25 -8.88244 66.9578 7 6 267
1952131S08072 1952 27 SI MM NOT_NAMED 1952-05-12 15:00:00 TS -8.85030 66.6931 main 1583 1573 P________PP___ SH241952 -8.83751 66.7001 -1 -8.83751 66.7001 TC 25 -8.87589 66.6793 7 6 273
1952131S08072 1952 27 SI MM NOT_NAMED 1952-05-12 18:00:00 TS -8.80000 66.4000 main 1573 1566 O________OO___ jtwc_sh SH241952 -8.80000 66.4000 -1 -8.80000 66.4000 TC 25 -8.80000 66.4000 7 6 296
1952131S08072 1952 27 SI MM NOT_NAMED 1952-05-12 21:00:00 TS -8.58265 66.1442 main 1572 1572 P________PP___ SH241952 -8.58745 66.1500 -1 -8.58745 66.1500 TC 25 -8.57303 66.1328 7 7 315
1952131S08072 1952 27 SI MM NOT_NAMED 1952-05-13 00:00:00 TS -8.29496 65.8882 main 1588 1588 O________OP___ jtwc_sh SH241952 -8.30000 65.9000 -1 -8.30000 65.9000 TC 25 -8.28486 65.8645 7 8 317
1952131S08072 1952 27 SI MM NOT_NAMED 1952-05-13 03:00:00 TS -8.00475 65.6013 main 1599 1597 P________PP___ SH241952 -8.00500 65.6074 -1 -8.00500 65.6074 TC 25 -8.00427 65.5890 7 8 310
1952131S08072 1952 27 SI MM NOT_NAMED 1952-05-13 06:00:00 TS -7.80000 65.3000 main 1601 1585 O________OO___ jtwc_sh SH241952 -7.80000 65.3000 -1 -7.80000 65.3000 TC 25 -7.80000 65.3000 7 6 289
1952131S08072 1952 27 SI MM NOT_NAMED 1952-05-13 09:00:00 TS -7.79260 64.9962 main 1585 1560 P________PP___ SH241952 -7.80496 65.0076 -1 -7.80496 65.0076 TC 25 -7.76787 64.9735 7 6 263
1952131S08072 1952 27 SI MM NOT_NAMED 1952-05-13 12:00:00 TS -7.87253 64.6785 main 1560 1539 O________OP___ jtwc_sh SH241952 -7.90000 64.7000 -1 -7.90000 64.7000 TC 25 -7.81759 64.6354 7 7 257
1952131S08072 1952 27 SI MM NOT_NAMED 1952-05-13 15:00:00 TS -7.94118 64.3299 main 1539 1514 P________PP___ SH241952 -7.95752 64.3425 -1 -7.95752 64.3425 TC 25 -7.90850 64.3046 7 7 259
1952131S08072 1952 27 SI MM NOT_NAMED 1952-05-13 18:00:00 TS -8.00000 64.0000 main 1514 1500 O________OO___ jtwc_sh SH241952 -8.00000 64.0000 -1 -8.00000 64.0000 TC 25 -8.00000 64.0000 7 6 263
1952131S08072 1952 27 SI MM NOT_NAMED 1952-05-13 21:00:00 TS -8.01065 63.7364 main 1500 1491 P________PP___ SH241952 -7.99997 63.7275 -1 -7.99997 63.7275 TC 25 -8.03203 63.7543 7 5 268
1952131S08072 1952 27 SI MM NOT_NAMED 1952-05-14 00:00:00 TS -8.01910 63.5116 main 1491 1472 O________OP___ jtwc_sh SH241952 -8.00000 63.5000 -1 -8.00000 63.5000 TC 25 -8.05729 63.5349 7 4 263
1952131S08072 1952 27 SI MM NOT_NAMED 1952-05-14 03:00:00 TS -8.05962 63.3077 main 1472 1463 P________PP___ SH241952 -8.04997 63.3000 -1 -8.04997 63.3000 TC 25 -8.07891 63.3231 7 4 259
1952131S08072 1952 27 SI MM NOT_NAMED 1952-05-14 06:00:00 TS -8.10000 63.1000 main 1463 1455 O________OO___ jtwc_sh SH241952 -8.10000 63.1000 -1 -8.10000 63.1000 TC 25 -8.10000 63.1000 7 4 264
1952131S08072 1952 27 SI MM NOT_NAMED 1952-05-14 09:00:00 TS -8.10831 62.8578 main 1455 1443 P________PP___ SH241952 -8.09998 62.8650 -1 -8.09998 62.8650 TC 25 -8.12497 62.8434 7 5 268
1952131S08072 1952 27 SI MM NOT_NAMED 1952-05-14 12:00:00 TS -8.11665 62.5908 main 1443 1421 O________OP___ jtwc_sh SH241952 -8.10000 62.6000 -1 -8.10000 62.6000 TC 25 -8.14995 62.5725 7 6 265
1952131S08072 1952 27 SI MM NOT_NAMED 1952-05-14 15:00:00 TS -8.15831 62.3018 main 1421 1410 P________PP___ SH241952 -8.14999 62.3075 -1 -8.14999 62.3075 TC 25 -8.17496 62.2903 7 6 262
1952131S08072 1952 27 SI MM NOT_NAMED 1952-05-14 18:00:00 TS -8.20000 62.0000 main 1410 1397 O________OO___ jtwc_sh SH241952 -8.20000 62.0000 -1 -8.20000 62.0000 TC 25 -8.20000 62.0000 7 6 265
1952131S08072 1952 27 SI MM NOT_NAMED 1952-05-14 21:00:00 TS -8.20831 61.7024 main 1397 1367 P________PP___ SH241952 -8.19998 61.7000 -1 -8.19998 61.7000 TC 25 -8.22496 61.7072 7 6 268
1952131S08072 1952 27 SI MM NOT_NAMED 1952-05-15 00:00:00 TS -8.21665 61.4025 main 1367 1332 O________OP___ jtwc_sh SH241952 -8.20000 61.4000 -1 -8.20000 61.4000 TC 25 -8.24994 61.4075 7 6 265
1952131S08072 1952 27 SI MM NOT_NAMED 1952-05-15 03:00:00 TS -8.25830 61.1014 main 1332 1288 P________PP___ SH241952 -8.24998 61.1000 -1 -8.24998 61.1000 TC 25 -8.27495 61.1040 7 8 257
1952131S08072 1952 27 SI MM NOT_NAMED 1952-05-15 06:00:00 TS -8.38461 60.6615 reunion main 1288 1243 O____O___OO___ jtwc_sh SH241952 -8.30000 60.8000 -1 -9.40000 59.0000 99 9.90000 -8.30000 60.8000 TC 25 -8.30000 60.8000 7 8 256
1952131S08072 1952 27 SI MM NOT_NAMED 1952-05-15 09:00:00 TS -8.46855 60.2740 main 1243 1203 P____P___PP___ SH241952 -8.29998 60.5000 -1 -9.43002 58.9344 99 -8.29998 60.5000 TC 25 -8.32497 60.4919 7 7 257
1952131S08072 1952 27 SI MM NOT_NAMED 1952-05-15 12:00:00 TS -8.54548 59.9291 main 1203 1168 O____P___OP___ jtwc_sh SH241952 -8.30000 60.2000 -1 -9.46076 58.8655 99 -8.30000 60.2000 TC 25 -8.34997 60.1850 7 7 255
1952131S08072 1952 27 SI MM NOT_NAMED 1952-05-15 15:00:00 TS -8.64197 59.6152 main 1168 1144 P____P___PP___ SH241952 -8.34999 59.8925 -1 -9.49292 58.7901 99 -8.34999 59.8925 TC 25 -8.37498 59.8856 7 6 256
1952131S08072 1952 27 SI MM NOT_NAMED 1952-05-15 18:00:00 TS -8.68180 59.3762 main 1144 1124 O____P___OO___ jtwc_sh SH241952 -8.40000 59.6000 -1 -9.52722 58.7048 99 -8.40000 59.6000 TC 25 -8.40000 59.6000 7 5 263
1952131S08072 1952 27 SI MM NOT_NAMED 1952-05-15 21:00:00 TS -8.69527 59.1568 main 1124 1104 P____P___PP___ SH241952 -8.39997 59.3425 -1 -9.56438 58.6065 99 -8.39997 59.3425 TC 25 -8.41678 59.3356 7 4 266
1952131S08072 1952 27 SI MM NOT_NAMED 1952-05-16 00:00:00 TS -8.70999 58.9442 main 1094 1075 O____P___OP___ jtwc_sh SH241952 -8.40000 59.1000 -1 -9.60509 58.4918 99 -8.40000 59.1000 TC 25 -8.43487 59.0849 7 4 263
1952131S08072 1952 27 SI MM NOT_NAMED 1952-05-16 03:00:00 TS -8.74889 58.7248 main 1075 1050 P____P___PP___ SH241952 -8.44248 58.8500 -1 -9.65007 58.3574 99 -8.44248 58.8500 TC 25 -8.46054 58.8418 7 4 258
1952131S08072 1952 27 SI MM NOT_NAMED 1952-05-16 06:00:00 TS -8.80000 58.5000 reunion main 1050 1031 O____O___OO___ jtwc_sh SH241952 -8.50000 58.6000 -1 -9.70000 58.2000 99 9.90000 -8.50000 58.6000 TC 25 -8.50000 58.6000 7 5 257
1952131S08072 1952 27 SI MM NOT_NAMED 1952-05-16 09:00:00 TS -8.85122 58.2659 main 1025 996 P____P___PP___ SH241952 -8.54248 58.3500 -1 -9.75525 58.0177 99 -8.54248 58.3500 TC 25 -8.56466 58.3460 7 5 256
1952131S08072 1952 27 SI MM NOT_NAMED 1952-05-16 12:00:00 TS -8.91435 58.0266 main 996 972 O____P___OP___ jtwc_sh SH241952 -8.60000 58.1000 -1 -9.81495 57.8139 99 -8.60000 58.1000 TC 25 -8.64246 58.0926 7 5 253
1952131S08072 1952 27 SI MM NOT_NAMED 1952-05-16 15:00:00 TS -9.00047 57.7840 main 972 947 P____P___PP___ SH241952 -8.69998 57.8500 -1 -9.87788 57.5931 99 -8.69998 57.8500 TC 25 -8.72404 57.8428 7 5 250
1952131S08072 1952 27 SI MM NOT_NAMED 1952-05-16 18:00:00 TS -9.08572 57.5400 main 937 918 O____P___OO___ jtwc_sh SH241952 -8.80000 57.6000 -1 -9.94286 57.3602 99 -8.80000 57.6000 TC 25 -8.80000 57.6000 7 5 254
1952131S08072 1952 27 SI MM NOT_NAMED 1952-05-16 21:00:00 TS -9.14523 57.2880 main 918 893 P____P___PP___ SH241952 -8.85750 57.3425 -1 -10.0087 57.1197 99 -8.85750 57.3425 TC 30 -8.85719 57.3475 7 5 257
1952131S08072 1952 27 SI MM NOT_NAMED 1952-05-17 00:00:00 TS -9.19546 57.0453 main 884 865 O____P___OP___ jtwc_sh SH241952 -8.90000 57.1000 -1 -10.0743 56.8763 99 -8.90000 57.1000 TC 35 -8.90753 57.1050 7 5 257
1952131S08072 1952 27 SI MM NOT_NAMED 1952-05-17 03:00:00 TS -9.24813 56.8187 main 865 840 P____P___PP___ SH241952 -8.95000 56.8775 -1 -10.1384 56.6349 99 -8.95000 56.8775 TC 30 -8.95409 56.8850 7 4 256
1952131S08072 1952 27 SI MM NOT_NAMED 1952-05-17 06:00:00 TS -9.30000 56.6250 reunion main 840 831 O____O___OO___ jtwc_sh SH241952 -9.00000 56.7000 -1 -10.2000 56.4000 99 9.90000 -9.00000 56.7000 TC 25 -9.00000 56.7000 7 4 253
1952131S08072 1952 27 SI MM NOT_NAMED 1952-05-17 09:00:00 TS -9.35255 56.4809 main 825 815 P____P___PP___ SH241952 -9.04998 56.5850 -1 -10.2604 56.1773 99 -9.04998 56.5850 TC 25 -9.04989 56.5762 7 3 248
1952131S08072 1952 27 SI MM NOT_NAMED 1952-05-17 12:00:00 TS -9.40480 56.3605 main 815 800 O____P___OP___ jtwc_sh SH241952 -9.10000 56.5000 -1 -10.3193 55.9572 99 -9.10000 56.5000 TC 25 -9.09986 56.4849 7 3 246
1952131S08072 1952 27 SI MM NOT_NAMED 1952-05-17 15:00:00 TS -9.45651 56.2432 main 791 781 P____P___PP___ SH241952 -9.14998 56.4150 -1 -10.3762 55.7417 99 -9.14998 56.4150 TC 30 -9.14990 56.4012 7 3 248
1952131S08072 1952 27 SI MM NOT_NAMED 1952-05-17 18:00:00 TS -9.50750 56.1081 main 781 757 O____P___OO___ jtwc_sh SH241952 -9.20000 56.3000 -1 -10.4300 55.5326 99 -9.20000 56.3000 TC 35 -9.20000 56.3000 2 3 252
1952131S08072 1952 27 SI MM NOT_NAMED 1952-05-17 21:00:00 TS -9.55755 55.9193 main 757 738 P____P___PP___ SH241952 -9.25002 56.1075 -1 -10.4801 55.3319 99 -9.25002 56.1075 TC 35 -9.25006 56.1303 2 4 255
1952131S08072 1952 27 SI MM NOT_NAMED 1952-05-18 00:00:00 TS -9.60644 55.7210 main 738 723 O____P___OP___ jtwc_sh SH241952 -9.30000 55.9000 -1 -10.5257 55.1416 99 -9.30000 55.9000 TC 35 -9.30009 55.9425 2 4 255
1952131S08072 1952 27 SI MM NOT_NAMED 1952-05-18 03:00:00 TS -9.65398 55.5480 main 713 704 P____P___PP___ SH241952 -9.34999 55.7350 -1 -10.5659 54.9637 99 -9.34999 55.7350 TC 35 -9.35006 55.7585 2 3 254
1952131S08072 1952 27 SI MM NOT_NAMED 1952-05-18 06:00:00 TS -9.70000 55.4000 reunion main 704 695 O____O___OO___ jtwc_sh SH241952 -9.40000 55.6000 -1 -10.6000 54.8000 99 9.90000 -9.40000 55.6000 TC 35 -9.40000 55.6000 2 3 252
1952131S08072 1952 27 SI MM NOT_NAMED 1952-05-18 09:00:00 TS -9.74112 55.2808 main 695 680 P____P___PP___ SH241952 -9.44999 55.4850 -1 -10.6186 54.6529 99 -9.44999 55.4850 TC 35 -9.44588 55.5003 2 2 249
1952131S08072 1952 27 SI MM NOT_NAMED 1952-05-18 12:00:00 TS -9.78062 55.1870 main 680 670 O____P___OP___ jtwc_sh SH241952 -9.50000 55.4000 -1 -10.6300 54.5204 99 -9.50000 55.4000 TC 35 -9.49243 55.4274 2 2 244
1952131S08072 1952 27 SI MM NOT_NAMED 1952-05-18 15:00:00 TS -9.81993 55.1165 main 670 664 P____P___PP___ SH241952 -9.54999 55.3500 -1 -10.6370 54.4001 99 -9.54999 55.3500 TC 35 -9.54277 55.3659 2 2 240
1952131S08072 1952 27 SI MM NOT_NAMED 1952-05-18 18:00:00 TS -9.86055 55.0474 main 655 655 O____P___OO___ jtwc_sh SH241952 -9.60000 55.3000 -1 -10.6422 54.2897 99 -9.60000 55.3000 TC 35 -9.60000 55.3000 2 2 243
1952131S08072 1952 27 SI MM NOT_NAMED 1952-05-18 21:00:00 TS -9.89927 54.9543 main 655 646 P____P___PP___ SH241952 -9.64250 55.2075 -1 -10.6484 54.1869 99 -9.64250 55.2075 TC 35 -9.66373 55.2153 2 2 245
1952131S08072 1952 27 SI MM NOT_NAMED 1952-05-19 00:00:00 TS -9.94830 54.8529 main 646 631 O____P___OP___ jtwc_sh SH241952 -9.70000 55.1000 -1 -10.6582 54.0892 99 -9.70000 55.1000 TC 35 -9.73497 55.1225 2 2 238
1952131S08072 1952 27 SI MM NOT_NAMED 1952-05-19 03:00:00 TS -10.0183 54.7569 main 631 615 P____P___PP___ SH241952 -9.79249 55.0075 -1 -10.6745 53.9944 99 -9.79249 55.0075 TC 35 -9.81372 55.0184 2 3 233
1952131S08072 1952 27 SI MM NOT_NAMED 1952-05-19 06:00:00 TS -10.1000 54.6500 reunion main 615 591 O____O___OO___ jtwc_sh SH241952 -9.90000 54.9000 -1 -10.7000 53.9000 99 9.90000 -9.90000 54.9000 TC 35 -9.90000 54.9000 2 3 235
1952131S08072 1952 27 SI MM NOT_NAMED 1952-05-19 09:00:00 TS -10.1837 54.5138 main 591 576 P____P___PP___ SH241952 -10.0000 54.7575 -1 -10.7420 53.7839 99 -10.0000 54.7575 TC 35 -9.99284 54.7563 2 3 239
1952131S08072 1952 27 SI MM NOT_NAMED 1952-05-19 12:00:00 TS -10.2712 54.3671 main 576 551 O____P___OP___ jtwc_sh SH241952 -10.1000 54.6000 -1 -10.7922 53.6685 99 -10.1000 54.6000 TC 35 -10.0925 54.6000 2 3 238
1952131S08072 1952 27 SI MM NOT_NAMED 1952-05-19 15:00:00 TS -10.3614 54.2211 main 551 542 P____P___PP___ SH241952 -10.2000 54.4425 -1 -10.8495 53.5558 99 -10.2000 54.4425 TC 35 -10.1960 54.4438 2 3 237
1952131S08072 1952 27 SI MM NOT_NAMED 1952-05-19 18:00:00 TS -10.4531 54.0869 main 536 527 O____P___OO___ jtwc_sh SH241952 -10.3000 54.3000 -1 -10.9125 53.4477 99 -10.3000 54.3000 TC 35 -10.3000 54.3000 2 3 232
1952131S08072 1952 27 SI MM NOT_NAMED 1952-05-19 21:00:00 TS -10.5441 53.9791 main 527 511 P____P___PP___ SH241952 -10.4000 54.1925 -1 -10.9803 53.3460 99 -10.4000 54.1925 TC 35 -10.3959 54.1856 2 3 227
1952131S08072 1952 27 SI MM NOT_NAMED 1952-05-20 00:00:00 TS -10.6360 53.8845 main 511 496 O____P___OP___ jtwc_sh SH241952 -10.5000 54.1000 -1 -11.0516 53.2529 99 -10.5000 54.1000 TC 35 -10.4925 54.0849 2 3 225
1952131S08072 1952 27 SI MM NOT_NAMED 1952-05-20 03:00:00 TS -10.7295 53.7905 main 496 481 P____P___PP___ SH241952 -10.6000 54.0000 -1 -11.1252 53.1702 99 -10.6000 54.0000 TC 35 -10.5928 53.9918 2 3 224
1952131S08072 1952 27 SI MM NOT_NAMED 1952-05-20 06:00:00 TS -10.8250 53.7000 reunion main 481 466 O____O___OO___ jtwc_sh SH241952 -10.7000 53.9000 -1 -11.2000 53.1000 99 9.90000 -10.7000 53.9000 TC 35 -10.7000 53.9000 2 3 223
1952131S08072 1952 27 SI MM NOT_NAMED 1952-05-20 09:00:00 TS -10.9183 53.6113 main 466 451 P____P___PP___ SH241952 -10.7925 53.8000 -1 -11.2665 53.0451 99 -10.7925 53.8000 TC 35 -10.8219 53.8000 2 3 222
1952131S08072 1952 27 SI MM NOT_NAMED 1952-05-20 12:00:00 TS -11.0211 53.5257 main 451 436 O____P___OP___ jtwc_sh SH241952 -10.9000 53.7000 -1 -11.3346 53.0027 99 -10.9000 53.7000 TC 35 -10.9500 53.7000 2 3 216
1952131S08072 1952 27 SI MM NOT_NAMED 1952-05-20 15:00:00 TS -11.1457 53.4427 main 436 425 P____P___PP___ SH241952 -11.0500 53.6000 -1 -11.4048 52.9708 99 -11.0500 53.6000 TC 35 -11.0781 53.6000 2 3 213
1952131S08072 1952 27 SI MM NOT_NAMED 1952-05-20 18:00:00 TS -11.2694 53.3618 main 425 410 O____P___OO___ jtwc_sh SH241952 -11.2000 53.5000 -1 -11.4774 52.9474 99 -11.2000 53.5000 TC 35 -11.2000 53.5000 2 3 216
1952131S08072 1952 27 SI MM NOT_NAMED 1952-05-20 21:00:00 TS -11.3688 53.2816 main 410 396 P____P___PP___ SH241952 -11.3075 53.4000 -1 -11.5529 52.9306 99 -11.3075 53.4000 TC 35 -11.3072 53.3959 2 2 220
1952131S08072 1952 27 SI MM NOT_NAMED 1952-05-21 00:00:00 TS -11.4598 53.2027 main 396 386 O____P___OP___ jtwc_sh SH241952 -11.4000 53.3000 -1 -11.6315 52.9184 99 -11.4000 53.3000 TC 35 -11.4075 53.2925 2 2 220
1952131S08072 1952 27 SI MM NOT_NAMED 1952-05-21 03:00:00 TS -11.5545 53.1254 main 381 381 P____P___PP___ SH241952 -11.5000 53.2000 -1 -11.7138 52.9088 99 -11.5000 53.2000 TC 35 -11.5041 53.1928 2 2 218
1952131S08072 1952 27 SI MM NOT_NAMED 1952-05-21 06:00:00 TS -11.6500 53.0500 reunion main 381 367 O____O___OO___ jtwc_sh SH241952 -11.6000 53.1000 -1 -11.8000 52.9000 99 9.90000 -11.6000 53.1000 TC 35 -11.6000 53.1000 2 2 217
1952131S08072 1952 27 SI MM NOT_NAMED 1952-05-21 09:00:00 TS -11.7462 52.9728 main 367 352 P____P___PP___ SH241952 -11.7000 52.9925 -1 -11.8850 52.8885 99 -11.7000 52.9925 TC 35 -11.7000 53.0178 2 2 217
1952131S08072 1952 27 SI MM NOT_NAMED 1952-05-21 12:00:00 TS -11.8434 52.9056 main 352 348 O____P___OP___ jtwc_sh SH241952 -11.8000 52.9000 -1 -11.9734 52.8799 99 -11.8000 52.9000 TC 35 -11.8000 52.9425 2 2 209
1952131S08072 1952 27 SI MM NOT_NAMED 1952-05-21 15:00:00 TS -11.9414 52.8571 main 348 334 P____P___PP___ SH241952 -11.9000 52.8425 -1 -12.0658 52.8725 99 -11.9000 52.8425 TC 35 -11.9000 52.8709 2 2 204
1952131S08072 1952 27 SI MM NOT_NAMED 1952-05-21 18:00:00 TS -12.0406 52.8162 main 334 330 O____P___OO___ jtwc_sh SH241952 -12.0000 52.8000 -1 -12.1625 52.8648 99 -12.0000 52.8000 TC 35 -12.0000 52.8000 2 2 201
1952131S08072 1952 27 SI MM NOT_NAMED 1952-05-21 21:00:00 TS -12.1410 52.7738 main 330 316 P____P___PP___ SH241952 -12.1000 52.7575 -1 -12.2638 52.8553 99 -12.1000 52.7575 TC 35 -12.1000 52.7250 2 2 204
1952131S08072 1952 27 SI MM NOT_NAMED 1952-05-22 00:00:00 TS -12.2426 52.7231 main 316 313 O____P___OP___ jtwc_sh SH241952 -12.2000 52.7000 -1 -12.3703 52.8424 99 -12.2000 52.7000 TC 35 -12.2000 52.6500 2 2 210
1952131S08072 1952 27 SI MM NOT_NAMED 1952-05-22 03:00:00 TS -12.3456 52.6499 main 303 300 P____P___PP___ SH241952 -12.3000 52.6000 -1 -12.4822 52.8244 99 -12.3000 52.6000 TC 35 -12.3000 52.5750 2 3 214
1952131S08072 1952 27 SI MM NOT_NAMED 1952-05-22 06:00:00 TS -12.4500 52.5750 reunion main 300 287 O____O___OO___ jtwc_sh SH241952 -12.4000 52.5000 -1 -12.6000 52.8000 99 9.90000 -12.4000 52.5000 TC 35 -12.4000 52.5000 2 2 210
1952131S08072 1952 27 SI MM NOT_NAMED 1952-05-22 09:00:00 TS -12.5549 52.5261 main 285 282 P____P___PP___ SH241952 -12.5000 52.4500 -1 -12.7197 52.7753 99 -12.5000 52.4500 TC 35 -12.5000 52.4290 2 2 205
1952131S08072 1952 27 SI MM NOT_NAMED 1952-05-22 12:00:00 TS -12.6613 52.4758 main 282 268 O____P___OP___ jtwc_sh SH241952 -12.6000 52.4000 -1 -12.8452 52.7457 99 -12.6000 52.4000 TC 35 -12.6000 52.3575 2 2 209
1952131S08072 1952 27 SI MM NOT_NAMED 1952-05-22 15:00:00 TS -12.7691 52.4018 main 268 255 P____P___PP___ SH241952 -12.7000 52.3075 -1 -12.9763 52.7101 99 -12.7000 52.3075 TC 35 -12.7000 52.2822 2 3 215
1952131S08072 1952 27 SI MM NOT_NAMED 1952-05-22 18:00:00 TS -12.8781 52.3168 main 255 242 O____P___OO___ jtwc_sh SH241952 -12.8000 52.2000 -1 -13.1124 52.6672 99 -12.8000 52.2000 TC 35 -12.8000 52.2000 2 3 218
1952131S08072 1952 27 SI MM NOT_NAMED 1952-05-22 21:00:00 TS -12.9883 52.2287 main 242 229 P____P___PP___ SH241952 -12.9000 52.1000 -1 -13.2532 52.6159 99 -12.9000 52.1000 TC 35 -12.9000 52.0991 2 3 218
1952131S08072 1952 27 SI MM NOT_NAMED 1952-05-23 00:00:00 TS -13.0996 52.1369 main 229 216 O____P___OP___ jtwc_sh SH241952 -13.0000 52.0000 -1 -13.3983 52.5550 99 -13.0000 52.0000 TC 35 -13.0000 51.9925 2 3 220
1952131S08072 1952 27 SI MM NOT_NAMED 1952-05-23 03:00:00 TS -13.2119 52.0395 main 216 212 P____P___PP___ SH241952 -13.1000 51.8925 -1 -13.5474 52.4834 99 -13.1000 51.8925 TC 35 -13.1000 51.8897 2 3 219
1952131S08072 1952 27 SI MM NOT_NAMED 1952-05-23 06:00:00 TS -13.3250 51.9500 reunion main 212 199 O____O___OO___ jtwc_sh SH241952 -13.2000 51.8000 -1 -13.7000 52.4000 99 9.90000 -13.2000 51.8000 TC 35 -13.2000 51.8000 2 3 212
1952131S08072 1952 27 SI MM NOT_NAMED 1952-05-23 09:00:00 TS -13.4386 51.8943 main 199 186 P____P___PP___ SH241952 -13.3000 51.7425 -1 -13.8547 52.3446 99 -13.3000 51.7425 TC 35 -13.3000 51.7477 2 3 202
1952131S08072 1952 27 SI MM NOT_NAMED 1952-05-23 12:00:00 TS -13.5534 51.8472 main 185 184 O____P___OP___ jtwc_sh SH241952 -13.4000 51.7000 -1 -14.0137 52.2816 99 -13.4000 51.7000 TC 35 -13.3999 51.7074 2 3 203
1952131S08072 1952 27 SI MM NOT_NAMED 1952-05-23 15:00:00 TS -13.6690 51.7921 main 184 172 P____P___PP___ SH241952 -13.5000 51.6500 -1 -14.1761 52.2050 99 -13.5000 51.6500 TC 35 -13.4999 51.6634 2 3 207
1952131S08072 1952 27 SI MM NOT_NAMED 1952-05-23 18:00:00 TS -13.7852 51.7271 main 172 172 O____P___OO___ jtwc_sh SH241952 -13.6000 51.6000 -1 -14.3408 52.1085 99 -13.6000 51.6000 TC 35 -13.6000 51.6000 2 3 207
1952131S08072 1952 27 SI MM NOT_NAMED 1952-05-23 21:00:00 TS -13.9005 51.6731 main 172 161 P____P___PP___ SH241952 -13.7000 51.5725 -1 -14.5066 51.9860 99 -13.7000 51.5725 TC 35 -13.6955 51.5613 2 3 212
1952131S08072 1952 27 SI MM NOT_NAMED 1952-05-24 00:00:00 TS -14.0161 51.5808 main 161 140 O____P___OP___ jtwc_sh SH241952 -13.8000 51.5000 -1 -14.6725 51.8313 99 -13.8000 51.5000 TC 35 -13.7917 51.4921 2 3 225
1952131S08072 1952 27 SI MM NOT_NAMED 1952-05-24 03:00:00 TS -14.1323 51.4312 main 140 116 P____P___PP___ SH241952 -13.8998 51.3674 -1 -14.8374 51.6380 99 -13.8998 51.3674 TC 35 -13.8921 51.3518 2 5 239
1952131S08072 1952 27 SI MM NOT_NAMED 1952-05-24 06:00:00 TS -14.2500 51.1750 reunion main 116 68 O____O___OO___ jtwc_sh SH241952 -14.0000 51.1000 -1 -15.0000 51.4000 99 9.90000 -14.0000 51.1000 TC 35 -14.0000 51.1000 2 7 250
1952131S08072 1952 27 SI MM NOT_NAMED 1952-05-24 09:00:00 TS -14.3734 50.7606 main 68 15 P____P___PP___ SH241952 -14.0926 50.6524 -1 -15.1695 51.0631 99 -14.0926 50.6524 TC 35 -14.1389 50.6743 2 9 254
1952131S08072 1952 27 SI MM NOT_NAMED 1952-05-24 12:00:00 TS -14.5049 50.2539 main 15 0 O____P___OP___ jtwc_sh SH241952 -14.2000 50.1000 -1 -15.3385 50.6747 99 -14.2000 50.1000 TC 35 -14.2811 50.1407 2 10 254
1952131S08072 1952 27 SI MM NOT_NAMED 1952-05-24 15:00:00 TS -14.6605 49.7209 main 0 0 P____P___PP___ SH241952 -14.3651 49.5352 -1 -15.5043 50.2515 99 -14.3651 49.5352 TC 35 -14.4076 49.5617 2 11 254
1952131S08072 1952 27 SI MM NOT_NAMED 1952-05-24 18:00:00 TS -14.7911 49.2025 main 0 0 O____P___OO___ jtwc_sh SH241952 -14.5000 49.0000 -1 -15.6643 49.8100 99 -14.5000 49.0000 TC 35 -14.5000 49.0000 2 9 259
1952131S08072 1952 27 SI MM NOT_NAMED 1952-05-24 21:00:00 TS -14.8449 48.7737 main 0 0 P____P___PP___ SH241952 -14.5223 48.5849 -1 -15.8161 49.3673 99 -14.5223 48.5849 TC 35 -14.5190 48.5578 2 8 265
1952131S08072 1952 27 SI MM NOT_NAMED 1952-05-25 00:00:00 TS -14.8660 48.3704 main 0 0 O____P___OP___ jtwc_sh SH241952 -14.5000 48.2000 -1 -15.9574 48.9401 99 -14.5000 48.2000 TC 35 -14.5066 48.1416 2 8 267
1952131S08072 1952 27 SI MM NOT_NAMED 1952-05-25 03:00:00 TS -14.8905 47.9475 main 0 0 P____P___PP___ SH241952 -14.4925 47.7575 -1 -16.0860 48.5453 99 -14.4925 47.7575 TC 35 -14.4909 47.7297 2 8 266
1952131S08072 1952 27 SI MM NOT_NAMED 1952-05-25 06:00:00 TS -14.9250 47.5250 reunion main 10 0 O____O___OO___ jtwc_sh SH241952 -14.5000 47.3000 -1 -16.2000 48.2000 99 9.90000 -14.5000 47.3000 TC 35 -14.5000 47.3000 2 8 264
1952131S08072 1952 27 SI MM NOT_NAMED 1952-05-25 09:00:00 TS -14.9717 47.1250 main 15 15 P____P___PP___ SH241952 -14.5273 46.8649 -1 -16.2980 47.9169 99 -14.5273 46.8649 TC 35 -14.5341 46.8533 2 8 261
1952131S08072 1952 27 SI MM NOT_NAMED 1952-05-25 12:00:00 TS -15.0458 46.7183 main 35 24 O____P___OP___ jtwc_sh SH241952 -14.6000 46.4000 -1 -16.3816 47.6920 99 -14.6000 46.4000 TC 35 -14.6015 46.3811 2 8 258
1952131S08072 1952 27 SI MM NOT_NAMED 1952-05-25 15:00:00 TS -15.1490 46.2900 main 46 39 P____P___PP___ SH241952 -14.7123 45.8873 -1 -16.4531 47.5169 99 -14.7123 45.8873 TC 35 -14.7182 45.8685 2 9 253
1952131S08072 1952 27 SI MM NOT_NAMED 1952-05-25 18:00:00 TS -15.3036 45.8209 main 59 46 O____P___OO___ jtwc_sh SH241952 -14.9000 45.3000 -1 -16.5145 47.3836 99 -14.9000 45.3000 TC 35 -14.9000 45.3000 2 10 249
1952131S08072 1952 27 SI MM NOT_NAMED 1952-05-25 21:00:00 TS -15.5121 45.2905 main 55 44 P____P___PP___ SH241952 -15.1700 44.6225 -1 -16.5678 47.2835 99 -15.1700 44.6225 TC 35 -15.1407 44.6335 2 13 251
1952131S08072 1952 27 SI MM NOT_NAMED 1952-05-26 00:00:00 TS -15.7086 44.5658 main 61 55 O____P___OP___ jtwc_sh SH241952 -15.5000 43.9000 -1 -16.6152 47.2084 99 -15.5000 43.9000 TC 35 -15.4460 43.9153 2 15 254
1952131S08072 1952 27 SI MM NOT_NAMED 1952-05-26 03:00:00 TS -15.9435 43.7526 main 78 78 P____P___PP___ SH241952 -15.8349 43.1848 -1 -16.6586 47.1501 99 -15.8349 43.1848 TC 35 -15.8032 43.1894 2 17 252
1952131S08072 1952 27 SI MM NOT_NAMED 1952-05-26 06:00:00 TS -16.2385 42.8538 reunion main 160 160 O____O___OO___ jtwc_sh SH241952 -16.2000 42.5000 -1 -16.7000 47.1000 99 9.90000 -16.2000 42.5000 TC 35 -16.2000 42.5000 2 19 251
1952131S08072 1952 27 SI MM NOT_NAMED 1952-05-26 09:00:00 TS -16.5747 41.8605 main 189 159 P________PP___ SH241952 -16.5773 41.8697 -1 99 -16.5773 41.8697 TC 35 -16.5693 41.8420 2 17 243
1952131S08072 1952 27 SI MM NOT_NAMED 1952-05-26 12:00:00 TS -16.9934 41.2784 main 164 146 O________OP___ jtwc_sh SH241952 -17.0000 41.3000 -1 99 -17.0000 41.3000 TC 35 -16.9802 41.2353 2 14 231
1952131S08072 1952 27 SI MM NOT_NAMED 1952-05-26 15:00:00 TS -17.4536 40.7402 main 147 147 P________PP___ SH241952 -17.4550 40.7548 -1 99 -17.4550 40.7548 TC 35 -17.4508 40.7110 2 14 223
1952131S08072 1952 27 SI MM NOT_NAMED 1952-05-26 18:00:00 TS -18.0000 40.3000 main 169 169 O________OO___ jtwc_sh SH241952 -18.0000 40.3000 -1 99 -18.0000 40.3000 TC 35 -18.0000 40.3000 2 14 212
1952131S08072 1952 27 SI MM NOT_NAMED 1952-05-26 21:00:00 TS -18.6674 39.9390 main 208 208 P________PP___ SH241952 -18.6624 39.9252 -1 99 -18.6624 39.9252 TC 35 -18.6774 39.9665 2 15 201
1952131S08072 1952 27 SI MM NOT_NAMED 1952-05-27 00:00:00 TS -19.4087 39.7179 main 275 275 O________OP___ jtwc_sh SH241952 -19.4000 39.7000 -1 99 -19.4000 39.7000 TC 35 -19.4262 39.7536 2 15 191
1952131S08072 1952 27 SI MM NOT_NAMED 1952-05-27 03:00:00 TS -20.1772 39.6378 main 359 359 P________PP___ SH241952 -20.1724 39.6248 -1 99 -20.1724 39.6248 TC 35 -20.1870 39.6638 2 15 181
1952131S08072 1952 27 SI MM NOT_NAMED 1952-05-27 06:00:00 TS -20.9000 39.7000 main 389 359 O________OO___ jtwc_sh SH241952 -20.9000 39.7000 -1 -20.9000 39.7000 TC 35 -20.9000 39.7000 2 13 172
1952131S08072 1952 27 SI MM NOT_NAMED 1952-05-27 09:00:00 TS -21.4911 39.8394 main 359 320 P________PP___ SH241952 -21.4874 39.8476 -1 -21.4874 39.8476 TC 35 -21.4984 39.8232 2 12 162
1952131S08072 1952 27 SI MM NOT_NAMED 1952-05-27 12:00:00 TS -22.0132 40.0896 main 320 288 O________OP___ jtwc_sh SH241952 -22.0000 40.1000 -1 -22.0000 40.1000 TC 35 -22.0395 40.0688 2 12 153
1952131S08072 1952 27 SI MM NOT_NAMED 1952-05-27 15:00:00 TS -22.5220 40.4151 main 288 255 P________PP___ SH241952 -22.5150 40.4201 -1 -22.5150 40.4201 TC 35 -22.5359 40.4051 2 12 146
1952131S08072 1952 27 SI MM NOT_NAMED 1952-05-27 18:00:00 TS -23.0000 40.8000 main 258 234 O________OO___ jtwc_sh SH241952 -23.0000 40.8000 -1 -23.0000 40.8000 TC 35 -23.0000 40.8000 2 12 143
1952131S08072 1952 27 SI MM NOT_NAMED 1952-05-27 21:00:00 TS -23.4576 41.1936 main 238 203 P________PP___ SH241952 -23.4648 41.1778 -1 -23.4648 41.1778 TC 35 -23.4432 41.2253 2 12 140
1952131S08072 1952 27 SI MM NOT_NAMED 1952-05-28 00:00:00 TS -23.8904 41.6236 main 204 163 O________OP___ jtwc_sh SH241952 -23.9000 41.6000 -1 -23.9000 41.6000 TC 35 -23.8712 41.6709 2 12 136
1952131S08072 1952 27 SI MM NOT_NAMED 1952-05-28 03:00:00 TS -24.3015 42.0982 main 163 121 P________PP___ SH241952 -24.3079 42.0818 -1 -24.3079 42.0818 TC 35 -24.2887 42.1310 2 12 132
1952131S08072 1952 27 SI MM NOT_NAMED 1952-05-28 06:00:00 TS -24.7000 42.6000 main 121 O________OO___ jtwc_sh SH241952 -24.7000 42.6000 -1 -24.7000 42.6000 TC 35 -24.7000 42.6000 2 12 131

IBTrACS Databaseについて

本データベースは、米国NOAAが公開する1842年以降の世界の熱帯低気圧のベストトラックデータアーカイブInternational Best Track Archive for Climate Stewardship (IBTrACS)を、ウェブで閲覧しやすい形式に変換したものです。

最終更新日:2021-10-27